createdAt,value
2016-03-23T00:00:37.579Z,6.28
2016-03-23T00:01:37.581Z,6.27
2016-03-23T00:02:37.568Z,6.22
2016-03-23T00:03:37.554Z,6.31
2016-03-23T00:04:37.573Z,6.25
2016-03-23T00:05:37.575Z,6.19
2016-03-23T00:06:37.407Z,6.27
2016-03-23T00:07:37.565Z,6.27
2016-03-23T00:08:37.583Z,6.25
2016-03-23T00:09:37.570Z,6.25
2016-03-23T00:10:37.589Z,6.25
2016-03-23T00:11:37.576Z,6.25
2016-03-23T00:12:37.563Z,6.25
2016-03-23T00:13:37.753Z,6.18
2016-03-23T00:14:37.569Z,6.25
2016-03-23T00:15:37.571Z,6.31
2016-03-23T00:16:37.575Z,6.31
2016-03-23T00:17:37.577Z,6.27
2016-03-23T00:18:37.580Z,6.27
2016-03-23T00:19:37.582Z,6.18
2016-03-23T00:20:37.585Z,6.17
2016-03-23T00:21:37.572Z,6.19
2016-03-23T00:22:37.574Z,6.21
2016-03-23T00:23:37.578Z,6.14
2016-03-23T00:24:36.955Z,6.21
2016-03-23T00:25:37.568Z,6.21
2016-03-23T00:26:37.601Z,6.28
2016-03-23T00:27:37.588Z,6.25
2016-03-23T00:28:37.451Z,6.19
2016-03-23T00:29:37.593Z,6.19
2016-03-23T00:30:37.584Z,6.18
2016-03-23T00:31:37.586Z,6.21
2016-03-23T00:32:37.574Z,6.12
2016-03-23T00:33:37.591Z,6.22
2016-03-23T00:34:37.563Z,6.18
2016-03-23T00:35:37.581Z,6.19
2016-03-23T00:36:37.568Z,6.21
2016-03-23T00:37:37.587Z,6.21
2016-03-23T00:38:37.574Z,6.21
2016-03-23T00:39:37.592Z,6.21
2016-03-23T00:40:37.579Z,6.21
2016-03-23T00:41:37.582Z,6.33
2016-03-23T00:42:36.990Z,6.21
2016-03-23T00:43:37.603Z,6.18
2016-03-23T00:44:37.589Z,6.21
2016-03-23T00:45:37.608Z,6.21
2016-03-23T00:46:37.611Z,6.18
2016-03-23T00:47:37.597Z,6.18
2016-03-23T00:48:37.601Z,6.18
2016-03-23T00:49:37.603Z,6.19
2016-03-23T00:50:37.591Z,6.18
2016-03-23T00:51:37.578Z,6.18
2016-03-23T00:52:37.596Z,6.3
2016-03-23T00:53:37.599Z,6.19
2016-03-23T00:54:37.585Z,6.27
2016-03-23T00:55:37.589Z,6.19
2016-03-23T00:56:37.591Z,6.18
2016-03-23T00:57:37.577Z,6.19
2016-03-23T00:58:37.580Z,6.31
2016-03-23T00:59:37.599Z,6.17
2016-03-23T01:00:37.602Z,6.25
2016-03-23T01:01:37.605Z,6.21
2016-03-23T01:02:37.592Z,6.21
2016-03-23T01:03:37.610Z,6.19
2016-03-23T01:04:37.596Z,6.22
2016-03-23T01:05:37.631Z,6.21
2016-03-23T01:06:37.587Z,6.17
2016-03-23T01:07:37.589Z,6.25
2016-03-23T01:08:37.576Z,6.19
2016-03-23T01:09:37.609Z,6.27
2016-03-23T01:10:37.598Z,6.19
2016-03-23T01:11:37.662Z,6.15
2016-03-23T01:12:37.603Z,6.19
2016-03-23T01:13:37.621Z,6.21
2016-03-23T01:14:37.608Z,6.21
2016-03-23T01:15:37.579Z,6.22
2016-03-23T01:16:37.598Z,6.21
2016-03-23T01:17:37.617Z,6.19
2016-03-23T01:18:37.603Z,6.21
2016-03-23T01:19:37.621Z,6.17
2016-03-23T01:20:37.593Z,6.17
2016-03-23T01:21:37.611Z,6.21
2016-03-23T01:22:37.645Z,6.19
2016-03-23T01:23:37.617Z,6.28
2016-03-23T01:24:37.603Z,6.31
2016-03-23T01:25:37.669Z,6.21
2016-03-23T01:26:37.609Z,6.21
2016-03-23T01:27:37.612Z,6.25
2016-03-23T01:28:37.614Z,6.21
2016-03-23T01:29:37.616Z,6.18
2016-03-23T01:30:37.620Z,6.21
2016-03-23T01:31:37.622Z,6.19
2016-03-23T01:32:37.594Z,6.19
2016-03-23T01:33:37.597Z,6.21
2016-03-23T01:34:37.600Z,6.17
2016-03-23T01:35:37.602Z,6.31
2016-03-23T01:36:37.620Z,6.18
2016-03-23T01:37:37.623Z,6.28
2016-03-23T01:38:37.610Z,6.18
2016-03-23T01:39:37.629Z,6.18
2016-03-23T01:40:37.615Z,6.19
2016-03-23T01:41:37.618Z,6.18
2016-03-23T01:42:37.606Z,6.3
2016-03-23T01:43:37.639Z,6.14
2016-03-23T01:44:37.611Z,6.36
2016-03-23T01:45:37.614Z,6.25
2016-03-23T01:46:37.616Z,6.25
2016-03-23T01:47:37.634Z,6.17
2016-03-23T01:48:37.622Z,6.28
2016-03-23T01:49:37.639Z,6.22
2016-03-23T01:50:37.611Z,6.31
2016-03-23T01:51:37.630Z,6.21
2016-03-23T01:52:37.617Z,6.25
2016-03-23T01:53:37.635Z,6.25
2016-03-23T01:54:37.606Z,6.28
2016-03-23T01:55:37.625Z,6.19
2016-03-23T01:56:37.643Z,6.21
2016-03-23T01:57:37.614Z,6.25
2016-03-23T01:58:37.616Z,6.21
2016-03-23T01:59:37.636Z,6.28
2016-03-23T02:00:38.232Z,6.15
2016-03-23T02:01:37.624Z,6.27
2016-03-23T02:02:37.613Z,6.15
2016-03-23T02:03:37.615Z,6.25
2016-03-23T02:04:37.618Z,6.19
2016-03-23T02:05:37.621Z,6.21
2016-03-23T02:06:37.624Z,6.21
2016-03-23T02:07:37.610Z,6.28
2016-03-23T02:08:38.417Z,6.15
2016-03-23T02:09:37.636Z,6.18
2016-03-23T02:10:37.801Z,6.3
2016-03-23T02:11:43.953Z,6.25
2016-03-23T02:12:37.613Z,6.18
2016-03-23T02:13:37.631Z,6.31
2016-03-23T02:14:37.618Z,6.18
2016-03-23T02:15:37.636Z,6.12
2016-03-23T02:16:37.639Z,6.11
2016-03-23T02:17:37.642Z,6.12
2016-03-23T02:18:37.628Z,6.12
2016-03-23T02:19:37.631Z,6.12
2016-03-23T02:20:37.609Z,6.19
2016-03-23T02:21:37.628Z,6.15
2016-03-23T02:22:37.630Z,6.19
2016-03-23T02:23:37.633Z,6.17
2016-03-23T02:24:37.619Z,6.15
2016-03-23T02:25:37.623Z,6.12
2016-03-23T02:26:37.625Z,6.12
2016-03-23T02:27:37.611Z,6.15
2016-03-23T02:28:37.630Z,6.09
2016-03-23T02:29:37.617Z,6.15
2016-03-23T02:30:37.682Z,6.19
2016-03-23T02:31:37.623Z,6.15
2016-03-23T02:32:37.625Z,6.15
2016-03-23T02:33:37.644Z,6.19
2016-03-23T02:34:37.615Z,6.15
2016-03-23T02:35:37.633Z,6.18
2016-03-23T02:36:37.621Z,6.18
2016-03-23T02:37:37.607Z,6.19
2016-03-23T02:38:37.626Z,6.06
2016-03-23T02:39:37.628Z,6.09
2016-03-23T02:40:37.632Z,6.12
2016-03-23T02:41:37.634Z,6.08
2016-03-23T02:42:37.637Z,6.04
2016-03-23T02:43:37.640Z,6.11
2016-03-23T02:44:37.626Z,6.08
2016-03-23T02:45:37.613Z,6.08
2016-03-23T02:46:37.631Z,6.03
2016-03-23T02:47:37.635Z,6.08
2016-03-23T02:48:37.653Z,6.09
2016-03-23T02:49:37.624Z,6.03
2016-03-23T02:50:37.626Z,6.03
2016-03-23T02:51:37.645Z,6.08
2016-03-23T02:52:37.632Z,6.08
2016-03-23T02:53:37.634Z,6.03
2016-03-23T02:54:37.623Z,6.04
2016-03-23T02:55:37.625Z,6.06
2016-03-23T02:56:37.612Z,6.08
2016-03-23T02:57:37.646Z,6.08
2016-03-23T02:58:37.648Z,6.06
2016-03-23T02:59:37.636Z,6.06
2016-03-23T03:00:37.638Z,6.09
2016-03-23T03:01:37.625Z,6.08
2016-03-23T03:02:37.628Z,6.09
2016-03-23T03:03:37.646Z,6.11
2016-03-23T03:04:37.649Z,6.04
2016-03-23T03:05:37.621Z,6.03
2016-03-23T03:06:37.624Z,6.11
2016-03-23T03:07:37.626Z,6.09
2016-03-23T03:08:37.644Z,6.09
2016-03-23T03:09:37.647Z,6.06
2016-03-23T03:10:37.650Z,5.94
2016-03-23T03:11:37.637Z,6.09
2016-03-23T03:12:37.654Z,6.04
2016-03-23T03:13:37.642Z,6.04
2016-03-23T03:14:37.629Z,6.08
2016-03-23T03:15:37.631Z,6.06
2016-03-23T03:16:37.651Z,6.11
2016-03-23T03:17:37.653Z,5.99
2016-03-23T03:18:37.639Z,6.09
2016-03-23T03:19:37.642Z,5.97
2016-03-23T03:20:37.661Z,6.03
2016-03-23T03:21:37.648Z,6.01
2016-03-23T03:22:37.634Z,6.06
2016-03-23T03:23:37.950Z,6
2016-03-23T03:24:37.640Z,5.99
2016-03-23T03:25:37.642Z,6.03
2016-03-23T03:26:37.661Z,6.08
2016-03-23T03:27:37.633Z,5.99
2016-03-23T03:28:37.651Z,6.04
2016-03-23T03:29:37.638Z,6.04
2016-03-23T03:30:37.656Z,6.03
2016-03-23T03:31:37.659Z,6.03
2016-03-23T03:32:37.648Z,6.01
2016-03-23T03:33:37.634Z,6.03
2016-03-23T03:34:37.636Z,6.01
2016-03-23T03:35:37.670Z,5.99
2016-03-23T03:36:37.626Z,6
2016-03-23T03:37:37.645Z,5.99
2016-03-23T03:38:37.647Z,5.94
2016-03-23T03:39:37.650Z,6
2016-03-23T03:40:37.653Z,5.97
2016-03-23T03:41:37.655Z,5.96
2016-03-23T03:42:37.659Z,6
2016-03-23T03:43:37.645Z,5.99
2016-03-23T03:44:37.633Z,5.99
2016-03-23T03:45:37.650Z,5.96
2016-03-23T03:46:37.638Z,5.99
2016-03-23T03:47:37.641Z,6
2016-03-23T03:48:37.658Z,5.93
2016-03-23T03:49:37.630Z,5.96
2016-03-23T03:50:37.649Z,5.99
2016-03-23T03:51:37.635Z,5.96
2016-03-23T03:52:37.654Z,5.97
2016-03-23T03:53:37.641Z,5.93
2016-03-23T03:54:37.644Z,5.94
2016-03-23T03:55:37.631Z,5.99
2016-03-23T03:56:37.680Z,5.93
2016-03-23T03:57:37.621Z,5.96
2016-03-23T03:58:37.639Z,5.91
2016-03-23T03:59:37.626Z,5.94
2016-03-23T04:00:37.645Z,5.96
2016-03-23T04:01:37.631Z,5.97
2016-03-23T04:02:37.650Z,6.01
2016-03-23T04:03:37.653Z,5.96
2016-03-23T04:04:37.656Z,5.94
2016-03-23T04:05:37.658Z,5.93
2016-03-23T04:06:37.645Z,5.94
2016-03-23T04:07:37.647Z,5.99
2016-03-23T04:08:37.712Z,5.93
2016-03-23T04:09:37.637Z,5.99
2016-03-23T04:10:37.014Z,5.99
2016-03-23T04:11:37.643Z,5.99
2016-03-23T04:12:37.630Z,5.94
2016-03-23T04:13:37.664Z,6
2016-03-23T04:14:37.635Z,5.96
2016-03-23T04:15:37.638Z,6
2016-03-23T04:16:37.641Z,5.99
2016-03-23T04:17:37.502Z,5.96
2016-03-23T04:18:37.693Z,5.97
2016-03-23T04:19:37.648Z,5.93
2016-03-23T04:20:37.666Z,5.91
2016-03-23T04:21:37.622Z,5.93
2016-03-23T04:22:37.624Z,5.97
2016-03-23T04:23:37.643Z,6
2016-03-23T04:24:37.662Z,5.93
2016-03-23T04:25:37.648Z,5.94
2016-03-23T04:26:37.667Z,5.99
2016-03-23T04:27:37.638Z,5.96
2016-03-23T04:28:37.656Z,5.91
2016-03-23T04:29:37.659Z,5.96
2016-03-23T04:30:37.646Z,5.97
2016-03-23T04:31:37.696Z,6
2016-03-23T04:32:37.636Z,5.91
2016-03-23T04:33:37.654Z,5.96
2016-03-23T04:34:37.642Z,5.93
2016-03-23T04:35:37.644Z,5.96
2016-03-23T04:36:37.647Z,5.91
2016-03-23T04:37:37.900Z,5.96
2016-03-23T04:38:37.637Z,5.99
2016-03-23T04:39:37.670Z,5.93
2016-03-23T04:40:37.642Z,5.96
2016-03-23T04:41:37.661Z,5.96
2016-03-23T04:42:37.679Z,5.96
2016-03-23T04:43:37.635Z,5.93
2016-03-23T04:44:37.638Z,5.89
2016-03-23T04:45:37.641Z,5.96
2016-03-23T04:46:37.643Z,5.91
2016-03-23T04:47:37.677Z,5.96
2016-03-23T04:48:37.758Z,5.94
2016-03-23T04:49:37.636Z,5.9
2016-03-23T04:50:37.654Z,5.99
2016-03-23T04:51:37.624Z,5.93
2016-03-23T04:52:37.660Z,5.94
2016-03-23T04:53:37.474Z,5.94
2016-03-23T04:54:37.665Z,6.01
2016-03-23T04:55:37.636Z,5.91
2016-03-23T04:56:37.779Z,5.93
2016-03-23T04:57:38.219Z,5.97
2016-03-23T04:58:38.471Z,5.94
2016-03-23T04:59:38.147Z,6.01
2016-03-23T05:00:38.024Z,5.99
2016-03-23T05:01:37.699Z,5.97
2016-03-23T05:02:37.842Z,6
2016-03-23T05:03:37.704Z,5.97
2016-03-23T05:04:37.784Z,5.93
2016-03-23T05:05:37.945Z,5.94
2016-03-23T05:06:37.712Z,5.99
2016-03-23T05:07:37.825Z,5.96
2016-03-23T05:08:37.795Z,5.94
2016-03-23T05:09:37.861Z,5.93
2016-03-23T05:10:37.739Z,5.93
2016-03-23T05:11:37.803Z,5.94
2016-03-23T05:12:37.822Z,5.94
2016-03-23T05:13:37.855Z,5.94
2016-03-23T05:14:37.703Z,5.9
2016-03-23T05:15:37.889Z,5.91
2016-03-23T05:16:37.773Z,5.93
2016-03-23T05:17:37.921Z,5.94
2016-03-23T05:18:37.788Z,5.9
2016-03-23T05:19:37.719Z,5.96
2016-03-23T05:20:37.791Z,5.9
2016-03-23T05:21:37.556Z,5.93
2016-03-23T05:22:37.789Z,5.93
2016-03-23T05:23:37.710Z,5.96
2016-03-23T05:24:37.569Z,5.96
2016-03-23T05:25:37.554Z,5.94
2016-03-23T05:26:37.570Z,6
2016-03-23T05:27:38.462Z,5.96
2016-03-23T05:28:38.275Z,5.94
2016-03-23T05:29:37.839Z,5.96
2016-03-23T05:30:37.730Z,5.96
2016-03-23T05:31:37.780Z,5.94
2016-03-23T05:32:37.752Z,5.99
2016-03-23T05:33:37.723Z,6
2016-03-23T05:34:37.725Z,5.93
2016-03-23T05:35:37.915Z,5.97
2016-03-23T05:36:37.620Z,5.96
2016-03-23T05:37:37.795Z,5.93
2016-03-23T05:38:37.657Z,5.96
2016-03-23T05:39:37.894Z,5.97
2016-03-23T05:40:37.725Z,5.94
2016-03-23T05:41:37.555Z,5.97
2016-03-23T05:42:37.668Z,5.93
2016-03-23T05:43:37.826Z,6.01
2016-03-23T05:44:37.985Z,5.99
2016-03-23T05:45:37.754Z,5.99
2016-03-23T05:46:37.835Z,6
2016-03-23T05:47:37.838Z,5.96
2016-03-23T05:48:37.668Z,6.01
2016-03-23T05:49:37.702Z,5.99
2016-03-23T05:50:37.751Z,6.04
2016-03-23T05:51:37.785Z,5.97
2016-03-23T05:52:37.851Z,6
2016-03-23T05:53:37.823Z,6.04
2016-03-23T05:54:37.715Z,6.11
2016-03-23T05:55:37.563Z,6.06
2016-03-23T05:56:37.596Z,6.08
2016-03-23T05:57:37.756Z,6.03
2016-03-23T05:58:37.743Z,6.11
2016-03-23T05:59:37.792Z,6.17
2016-03-23T06:00:37.592Z,6.08
2016-03-23T06:01:37.609Z,6.18
2016-03-23T06:02:37.675Z,6.15
2016-03-23T06:03:37.693Z,6.08
2016-03-23T06:04:37.711Z,6.18
2016-03-23T06:05:37.558Z,6.15
2016-03-23T06:06:37.549Z,6.19
2016-03-23T06:07:37.390Z,6.17
2016-03-23T06:08:38.288Z,6.15
2016-03-23T06:09:38.354Z,6.15
2016-03-23T06:10:37.951Z,6.18
2016-03-23T06:11:37.734Z,6.15
2016-03-23T06:12:37.659Z,6.14
2016-03-23T06:13:37.896Z,6.14
2016-03-23T06:14:38.039Z,6.11
2016-03-23T06:15:37.745Z,6.09
2016-03-23T06:16:37.747Z,6.14
2016-03-23T06:17:37.750Z,6.09
2016-03-23T06:18:37.784Z,6.18
2016-03-23T06:19:37.725Z,6.11
2016-03-23T06:20:37.150Z,6.25
2016-03-23T06:21:37.698Z,6.3
2016-03-23T06:22:37.733Z,6.22
2016-03-23T06:23:37.813Z,6.15
2016-03-23T06:24:37.894Z,6.21
2016-03-23T06:25:37.756Z,6.18
2016-03-23T06:26:37.744Z,6.18
2016-03-23T06:27:37.793Z,6.3
2016-03-23T06:28:51.749Z,6.28
2016-03-23T06:29:37.704Z,6.36
2016-03-23T06:30:37.738Z,6.34
2016-03-23T06:31:37.725Z,6.3
2016-03-23T06:32:37.713Z,6.38
2016-03-23T06:33:37.810Z,6.36
2016-03-23T06:34:37.890Z,6.36
2016-03-23T06:35:37.690Z,6.41
2016-03-23T06:36:37.770Z,6.44
2016-03-23T06:37:40.038Z,6.4
2016-03-23T06:38:38.666Z,6.46
2016-03-23T06:39:37.028Z,6.52
2016-03-23T06:40:38.203Z,6.44
2016-03-23T06:41:37.548Z,6.55
2016-03-23T06:42:37.567Z,6.59
2016-03-23T06:43:37.570Z,6.54
2016-03-23T06:44:37.464Z,6.55
2016-03-23T06:45:37.576Z,6.43
2016-03-23T06:46:37.625Z,6.44
2016-03-23T06:47:37.565Z,6.4
2016-03-23T06:48:37.567Z,6.4
2016-03-23T06:49:37.570Z,6.46
2016-03-23T06:50:37.573Z,6.44
2016-03-23T06:51:37.560Z,6.44
2016-03-23T06:52:37.563Z,6.4
2016-03-23T06:53:37.566Z,6.41
2016-03-23T06:54:37.569Z,6.46
2016-03-23T06:55:37.572Z,6.34
2016-03-23T06:56:37.575Z,6.4
2016-03-23T06:57:37.577Z,6.34
2016-03-23T06:58:37.564Z,6.36
2016-03-23T06:59:37.645Z,6.28
2016-03-23T07:00:37.553Z,6.36
2016-03-23T07:01:37.588Z,6.33
2016-03-23T07:02:37.575Z,6.3
2016-03-23T07:03:37.577Z,6.21
2016-03-23T07:04:37.580Z,6.17
2016-03-23T07:05:37.582Z,6.18
2016-03-23T07:06:37.585Z,6.15
2016-03-23T07:07:37.571Z,6.18
2016-03-23T07:08:37.591Z,6.18
2016-03-23T07:09:37.562Z,6.18
2016-03-23T07:10:37.596Z,6.21
2016-03-23T07:11:37.583Z,6.18
2016-03-23T07:12:37.585Z,6.19
2016-03-23T07:13:37.588Z,6.15
2016-03-23T07:14:37.762Z,6.19
2016-03-23T07:15:37.593Z,6.28
2016-03-23T07:16:37.581Z,6.27
2016-03-23T07:17:37.598Z,6.31
2016-03-23T07:18:37.570Z,6.33
2016-03-23T07:19:37.573Z,6.36
2016-03-23T07:20:37.591Z,6.36
2016-03-23T07:21:37.594Z,6.43
2016-03-23T07:22:37.597Z,6.41
2016-03-23T07:23:37.584Z,6.48
2016-03-23T07:24:37.587Z,6.49
2016-03-23T07:25:37.589Z,6.52
2016-03-23T07:26:37.639Z,6.55
2016-03-23T07:27:37.610Z,6.7
2016-03-23T07:28:37.582Z,6.7
2016-03-23T07:29:37.616Z,6.64
2016-03-23T07:30:37.572Z,6.74
2016-03-23T07:31:37.590Z,6.84
2016-03-23T07:32:37.593Z,6.74
2016-03-23T07:33:37.596Z,6.89
2016-03-23T07:34:37.582Z,6.99
2016-03-23T07:35:37.601Z,6.98
2016-03-23T07:36:37.588Z,7.13
2016-03-23T07:37:37.590Z,7.17
2016-03-23T07:38:37.577Z,7.35
2016-03-23T07:39:37.579Z,7.49
2016-03-23T07:40:37.582Z,7.48
2016-03-23T07:41:37.601Z,7.63
2016-03-23T07:42:37.587Z,7.74
2016-03-23T07:43:37.591Z,7.82
2016-03-23T07:44:37.593Z,7.87
2016-03-23T07:45:37.596Z,7.87
2016-03-23T07:46:37.599Z,8
2016-03-23T07:47:37.601Z,8
2016-03-23T07:48:37.604Z,7.97
2016-03-23T07:49:37.607Z,8
2016-03-23T07:50:37.609Z,7.98
2016-03-23T07:51:37.612Z,8.02
2016-03-23T07:52:37.630Z,7.9
2016-03-23T07:53:37.617Z,7.87
2016-03-23T07:54:37.620Z,7.9
2016-03-23T07:55:37.622Z,7.9
2016-03-23T07:56:37.626Z,7.9
2016-03-23T07:57:37.628Z,7.92
2016-03-23T07:58:37.647Z,7.9
2016-03-23T07:59:37.633Z,8.04
2016-03-23T08:00:37.636Z,8.04
2016-03-23T08:01:37.639Z,8.08
2016-03-23T08:02:37.627Z,8.18
2016-03-23T08:03:37.645Z,8.11
2016-03-23T08:04:37.647Z,8.19
2016-03-23T08:05:37.650Z,8.22
2016-03-23T08:06:37.637Z,8.2
2016-03-23T08:07:37.655Z,8.19
2016-03-23T08:08:37.658Z,8.34
2016-03-23T08:09:37.645Z,8.22
2016-03-23T08:10:38.054Z,8.16
2016-03-23T08:11:37.650Z,8.16
2016-03-23T08:12:37.653Z,8.11
2016-03-23T08:13:37.656Z,8.23
2016-03-23T08:14:37.659Z,8.19
2016-03-23T08:15:37.676Z,8.22
2016-03-23T08:16:37.679Z,8.33
2016-03-23T08:17:37.682Z,8.43
2016-03-23T08:18:37.669Z,8.45
2016-03-23T08:19:37.532Z,8.5
2016-03-23T08:20:37.675Z,8.63
2016-03-23T08:21:37.693Z,8.65
2016-03-23T08:22:37.680Z,8.7
2016-03-23T08:23:37.683Z,8.66
2016-03-23T08:24:37.701Z,8.73
2016-03-23T08:25:37.703Z,8.63
2016-03-23T08:26:37.706Z,8.65
2016-03-23T08:27:37.694Z,8.66
2016-03-23T08:28:37.711Z,8.65
2016-03-23T08:29:37.715Z,8.68
2016-03-23T08:30:37.717Z,8.61
2016-03-23T08:31:37.720Z,8.65
2016-03-23T08:32:37.722Z,8.62
2016-03-23T08:33:37.725Z,8.61
2016-03-23T08:34:37.728Z,8.65
2016-03-23T08:35:37.730Z,8.66
2016-03-23T08:36:37.749Z,8.68
2016-03-23T08:37:37.735Z,8.73
2016-03-23T08:38:37.739Z,8.7
2016-03-23T08:39:37.741Z,8.65
2016-03-23T08:40:37.588Z,8.76
2016-03-23T08:41:37.747Z,8.76
2016-03-23T08:42:37.781Z,8.91
2016-03-23T08:43:37.767Z,8.94
2016-03-23T08:44:37.755Z,8.98
2016-03-23T08:45:37.757Z,9.11
2016-03-23T08:46:38.495Z,9.14
2016-03-23T08:47:38.575Z,9.29
2016-03-23T08:48:37.984Z,9.2
2016-03-23T08:49:38.050Z,9.18
2016-03-23T08:50:37.973Z,9.33
2016-03-23T08:51:37.931Z,9.33
2016-03-23T08:52:37.964Z,9.38
2016-03-23T08:53:37.810Z,9.54
2016-03-23T08:54:37.813Z,9.57
2016-03-23T08:55:37.816Z,9.5
2016-03-23T08:56:38.475Z,9.75
2016-03-23T08:57:38.477Z,9.61
2016-03-23T08:58:38.058Z,9.74
2016-03-23T08:59:37.952Z,9.64
2016-03-23T09:00:38.063Z,9.72
2016-03-23T09:01:38.301Z,9.61
2016-03-23T09:02:37.850Z,9.58
2016-03-23T09:03:37.931Z,9.51
2016-03-23T09:04:37.933Z,9.57
2016-03-23T09:05:38.077Z,9.56
2016-03-23T09:06:38.049Z,9.72
2016-03-23T09:07:38.082Z,9.61
2016-03-23T09:08:37.960Z,9.68
2016-03-23T09:09:38.009Z,9.69
2016-03-23T09:10:38.013Z,9.64
2016-03-23T09:11:38.171Z,9.58
2016-03-23T09:12:37.940Z,9.69
2016-03-23T09:13:38.067Z,9.72
2016-03-23T09:14:38.195Z,9.65
2016-03-23T09:15:38.276Z,9.61
2016-03-23T09:16:37.966Z,9.66
2016-03-23T09:17:38.203Z,9.69
2016-03-23T09:18:38.190Z,9.72
2016-03-23T09:19:38.130Z,9.72
2016-03-23T09:20:38.117Z,9.75
2016-03-23T09:21:38.042Z,9.81
2016-03-23T09:22:38.184Z,9.86
2016-03-23T09:23:38.142Z,9.9
2016-03-23T09:24:38.175Z,9.91
2016-03-23T09:25:37.942Z,9.94
2016-03-23T09:26:37.992Z,9.99
2016-03-23T09:27:38.214Z,10.09
2016-03-23T09:28:38.092Z,10.04
2016-03-23T09:29:38.203Z,10.11
2016-03-23T09:30:38.144Z,10.09
2016-03-23T09:31:38.147Z,10.07
2016-03-23T09:32:38.180Z,10.12
2016-03-23T09:33:38.137Z,10.08
2016-03-23T09:34:38.155Z,10.18
2016-03-23T09:35:38.001Z,10.2
2016-03-23T09:36:37.988Z,10.26
2016-03-23T09:37:38.007Z,10.25
2016-03-23T09:38:38.760Z,10.23
2016-03-23T09:39:38.777Z,10.15
2016-03-23T09:40:37.702Z,10.15
2016-03-23T09:41:38.158Z,10.26
2016-03-23T09:42:38.192Z,10.17
2016-03-23T09:43:38.149Z,10.18
2016-03-23T09:44:38.338Z,10.15
2016-03-23T09:45:38.263Z,10.17
2016-03-23T09:46:38.172Z,10.2
2016-03-23T09:47:38.221Z,10.23
2016-03-23T09:48:38.162Z,10.17
2016-03-23T09:49:38.086Z,10.14
2016-03-23T09:50:37.947Z,10.18
2016-03-23T09:51:38.106Z,10.18
2016-03-23T09:52:38.094Z,10.18
2016-03-23T09:53:38.097Z,10.2
2016-03-23T09:54:38.818Z,10.22
2016-03-23T09:55:38.134Z,10.33
2016-03-23T09:56:38.136Z,10.26
2016-03-23T09:57:38.138Z,10.29
2016-03-23T09:58:38.142Z,10.34
2016-03-23T09:59:38.175Z,10.4
2016-03-23T10:00:38.146Z,10.45
2016-03-23T10:01:38.352Z,10.47
2016-03-23T10:02:38.152Z,10.51
2016-03-23T10:03:38.155Z,10.56
2016-03-23T10:04:38.173Z,10.61
2016-03-23T10:05:38.175Z,10.61
2016-03-23T10:06:38.194Z,10.6
2016-03-23T10:07:38.165Z,10.67
2016-03-23T10:08:38.184Z,10.55
2016-03-23T10:09:38.186Z,10.44
2016-03-23T10:10:38.205Z,10.41
2016-03-23T10:11:38.207Z,10.42
2016-03-23T10:12:38.241Z,10.41
2016-03-23T10:13:38.213Z,10.27
2016-03-23T10:14:38.215Z,10.23
2016-03-23T10:15:38.219Z,10.25
2016-03-23T10:16:38.252Z,10.17
2016-03-23T10:17:38.239Z,10.08
2016-03-23T10:18:38.243Z,10.02
2016-03-23T10:19:38.245Z,9.81
2016-03-23T10:20:38.341Z,9.84
2016-03-23T10:21:38.250Z,9.81
2016-03-23T10:22:38.268Z,9.83
2016-03-23T10:23:38.286Z,9.76
2016-03-23T10:24:38.274Z,9.83
2016-03-23T10:25:38.276Z,9.75
2016-03-23T10:26:38.294Z,9.76
2016-03-23T10:27:38.297Z,9.81
2016-03-23T10:28:38.300Z,9.81
2016-03-23T10:29:38.303Z,9.83
2016-03-23T10:30:41.852Z,9.75
2016-03-23T10:31:38.714Z,9.66
2016-03-23T10:32:38.311Z,9.72
2016-03-23T10:33:38.313Z,9.69
2016-03-23T10:34:38.317Z,9.65
2016-03-23T10:35:38.335Z,9.66
2016-03-23T10:36:38.321Z,9.64
2016-03-23T10:37:38.324Z,9.61
2016-03-23T10:38:38.358Z,9.6
2016-03-23T10:39:38.330Z,9.6
2016-03-23T10:40:38.332Z,9.66
2016-03-23T10:41:38.351Z,9.72
2016-03-23T10:42:38.338Z,9.74
2016-03-23T10:43:38.371Z,9.76
2016-03-23T10:44:38.360Z,9.87
2016-03-23T10:45:38.377Z,9.9
2016-03-23T10:46:38.380Z,9.94
2016-03-23T10:47:38.382Z,9.96
2016-03-23T10:48:38.385Z,9.99
2016-03-23T10:49:38.403Z,9.99
2016-03-23T10:50:38.390Z,9.99
2016-03-23T10:51:38.409Z,10.02
2016-03-23T10:52:38.411Z,10.04
2016-03-23T10:53:38.414Z,10.04
2016-03-23T10:54:39.386Z,9.99
2016-03-23T10:55:38.435Z,9.97
2016-03-23T10:56:38.469Z,10.04
2016-03-23T10:57:38.440Z,10.01
2016-03-23T10:58:38.428Z,9.83
2016-03-23T10:59:38.445Z,9.83
2016-03-23T11:00:38.438Z,9.83
2016-03-23T11:01:38.441Z,9.89
2016-03-23T11:02:38.444Z,9.91
2016-03-23T11:03:38.446Z,9.87
2016-03-23T11:04:38.464Z,9.86
2016-03-23T11:05:38.466Z,9.76
2016-03-23T11:06:38.485Z,9.72
2016-03-23T11:07:38.488Z,9.69
2016-03-23T11:08:38.491Z,9.58
2016-03-23T11:09:38.477Z,9.57
2016-03-23T11:10:38.496Z,9.51
2016-03-23T11:11:38.499Z,9.46
2016-03-23T11:12:38.501Z,9.38
2016-03-23T11:13:38.520Z,9.43
2016-03-23T11:14:38.522Z,9.47
2016-03-23T11:15:38.526Z,9.4
2016-03-23T11:16:38.512Z,9.32
2016-03-23T11:17:38.514Z,9.47
2016-03-23T11:18:38.534Z,9.46
2016-03-23T11:19:38.520Z,9.46
2016-03-23T11:20:38.539Z,9.51
2016-03-23T11:21:38.542Z,9.57
2016-03-23T11:22:38.840Z,9.56
2016-03-23T11:23:38.797Z,9.53
2016-03-23T11:24:38.658Z,9.66
2016-03-23T11:25:39.787Z,9.66
2016-03-23T11:26:39.117Z,9.69
2016-03-23T11:27:38.573Z,9.72
2016-03-23T11:28:38.717Z,9.71
2016-03-23T11:29:38.578Z,9.69
2016-03-23T11:30:38.628Z,9.74
2016-03-23T11:31:38.615Z,9.58
2016-03-23T11:32:38.618Z,9.51
2016-03-23T11:33:38.652Z,9.58
2016-03-23T11:34:38.622Z,9.43
2016-03-23T11:35:38.595Z,9.53
2016-03-23T11:36:38.910Z,9.43
2016-03-23T11:37:38.647Z,9.35
2016-03-23T11:38:38.665Z,9.36
2016-03-23T11:39:38.621Z,9.38
2016-03-23T11:40:38.623Z,9.28
2016-03-23T11:41:38.627Z,9.24
2016-03-23T11:42:38.629Z,9.24
2016-03-23T11:43:38.631Z,9.2
2016-03-23T11:44:38.634Z,9.21
2016-03-23T11:45:38.637Z,9.11
2016-03-23T11:46:38.655Z,9.13
2016-03-23T11:47:38.657Z,9.14
2016-03-23T11:48:38.660Z,9.08
2016-03-23T11:49:38.663Z,9.01
2016-03-23T11:50:38.650Z,8.96
2016-03-23T11:51:38.685Z,8.99
2016-03-23T11:52:38.671Z,8.99
2016-03-23T11:53:38.674Z,8.94
2016-03-23T11:54:38.676Z,9.04
2016-03-23T11:55:38.914Z,9.02
2016-03-23T11:56:38.932Z,9.1
2016-03-23T11:57:38.684Z,9.08
2016-03-23T11:58:38.750Z,9.15
2016-03-23T11:59:38.706Z,9.15
2016-03-23T12:00:38.677Z,9.18
2016-03-23T12:01:38.696Z,9.21
2016-03-23T12:02:38.698Z,9.17
2016-03-23T12:03:38.700Z,9.23
2016-03-23T12:04:38.703Z,9.23
2016-03-23T12:05:38.706Z,9.26
2016-03-23T12:06:38.725Z,9.28
2016-03-23T12:07:38.727Z,9.32
2016-03-23T12:08:38.714Z,9.36
2016-03-23T12:09:38.732Z,9.4
2016-03-23T12:10:38.719Z,9.4
2016-03-23T12:11:38.722Z,9.53
2016-03-23T12:12:38.725Z,9.57
2016-03-23T12:13:38.743Z,9.72
2016-03-23T12:14:38.746Z,9.78
2016-03-23T12:15:39.265Z,9.86
2016-03-23T12:16:38.768Z,10.07
2016-03-23T12:17:38.785Z,10.17
2016-03-23T12:18:38.788Z,10.3
2016-03-23T12:19:38.775Z,10.41
2016-03-23T12:20:38.810Z,10.45
2016-03-23T12:21:38.781Z,10.63
2016-03-23T12:22:38.768Z,10.7
2016-03-23T12:23:38.801Z,10.52
2016-03-23T12:24:38.851Z,10.55
2016-03-23T12:25:38.823Z,10.61
2016-03-23T12:26:38.825Z,10.56
2016-03-23T12:27:38.844Z,10.55
2016-03-23T12:28:38.893Z,10.53
2016-03-23T12:29:38.880Z,10.51
2016-03-23T12:30:38.945Z,10.48
2016-03-23T12:31:38.823Z,10.47
2016-03-23T12:32:38.872Z,10.47
2016-03-23T12:33:38.860Z,10.47
2016-03-23T12:34:38.878Z,10.55
2016-03-23T12:35:38.850Z,10.53
2016-03-23T12:36:38.883Z,10.63
2016-03-23T12:37:38.886Z,10.61
2016-03-23T12:38:38.874Z,10.71
2016-03-23T12:39:38.922Z,10.73
2016-03-23T12:40:38.925Z,10.56
2016-03-23T12:41:38.881Z,10.67
2016-03-23T12:42:38.884Z,10.67
2016-03-23T12:43:38.887Z,10.63
2016-03-23T12:44:38.889Z,10.59
2016-03-23T12:45:38.938Z,10.66
2016-03-23T12:46:38.926Z,10.59
2016-03-23T12:47:38.928Z,10.48
2016-03-23T12:48:38.931Z,10.59
2016-03-23T12:49:38.934Z,10.55
2016-03-23T12:50:38.936Z,10.48
2016-03-23T12:51:38.939Z,10.41
2016-03-23T12:52:39.005Z,10.41
2016-03-23T12:53:38.943Z,10.38
2016-03-23T12:54:38.945Z,10.41
2016-03-23T12:55:38.932Z,10.38
2016-03-23T12:56:38.950Z,10.41
2016-03-23T12:57:38.968Z,10.33
2016-03-23T12:58:38.970Z,10.4
2016-03-23T12:59:38.973Z,10.27
2016-03-23T13:00:38.992Z,10.17
2016-03-23T13:01:38.979Z,10.22
2016-03-23T13:02:38.997Z,10.23
2016-03-23T13:03:38.984Z,10.29
2016-03-23T13:04:38.987Z,10.34
2016-03-23T13:05:39.005Z,10.26
2016-03-23T13:06:39.008Z,10.38
2016-03-23T13:07:39.011Z,10.4
2016-03-23T13:08:39.013Z,10.44
2016-03-23T13:09:39.095Z,10.45
2016-03-23T13:10:39.035Z,10.38
2016-03-23T13:11:39.052Z,10.42
2016-03-23T13:12:39.071Z,10.45
2016-03-23T13:13:39.058Z,10.53
2016-03-23T13:14:39.077Z,10.53
2016-03-23T13:15:39.110Z,10.59
2016-03-23T13:16:38.894Z,10.63
2016-03-23T13:17:39.069Z,10.66